This is the latest recevied weather packets stored in our database for station/object KF7OVD-WX. If no packets are shown the sender has not sent any weather packets the latest 10 day(s).
| Time | Temp. | Humidity | Pressure | Rain* | Wind** | Luminosity | Snow |
|---|---|---|---|---|---|---|---|
| 1777910421 | 16.11° C | 51% | 1015.9 hPa | 0 mm | - | - | - |
| 1777908929 | 17.78° C | 53% | 1016.1 hPa | 0.25 mm | - | - | - |
| 1777906227 | 11.67° C | 71% | 1016.1 hPa | 0.25 mm | - | - | - |
| 1777905340 | 10.56° C | 76% | 1016.3 hPa | 0 mm | - | - | - |
| 1777905018 | 9.44° C | 79% | 1016.3 hPa | 0 mm | - | - | - |
| 1777904118 | 7.78° C | 86% | 1016.1 hPa | 0 mm | - | - | - |
| 1777901721 | 5.56° C | 90% | 1016.1 hPa | 0 mm | - | - | - |
| 1777900228 | 5° C | 90% | 1015.8 hPa | 0 mm | - | - | - |
| 1777899323 | 5° C | 90% | 1015.8 hPa | 0 mm | - | - | - |
| 1777897870 | 5° C | 90% | 1015.7 hPa | 0 mm | - | - | - |
| 1777896019 | 5.56° C | 88% | 1015.5 hPa | 0 mm | - | - | - |
| 1777895421 | 5.56° C | 87% | 1015.5 hPa | 0 mm | - | - | - |
| 1777893325 | 6.11° C | 86% | 1015.7 hPa | 0 mm | - | - | - |
| 1777892419 | 6.11° C | 84% | 1015.8 hPa | 0 mm | - | - | - |
| 1777892114 | 6.11° C | 84% | 1015.8 hPa | 0 mm | - | - | - |
| 1777890019 | 7.22° C | 83% | 1015.5 hPa | 0 mm | - | - | - |
| 1777888224 | 7.78° C | 82% | 1015.7 hPa | 0 mm | - | - | - |
| 1777886715 | 7.78° C | 79% | 1016.2 hPa | 0 mm | - | - | - |
| 1777883418 | 7.78° C | 86% | 1016.1 hPa | 0 mm | - | - | - |
| 1777879516 | 8.33° C | 81% | 1016.4 hPa | 0 mm | - | - | - |
| 1777876818 | 7.78° C | 85% | 1016.3 hPa | 0 mm | - | - | - |
| 1777875617 | 7.78° C | 82% | 1016.6 hPa | 0 mm | - | - | - |
| 1777872919 | 7.78° C | 81% | 1016.9 hPa | 0 mm | - | - | - |
| 1777870229 | 8.89° C | 77% | 1016.7 hPa | 0 mm | - | - | - |
| 1777864524 | 12.22° C | 70% | 1016.3 hPa | 0.25 mm | - | - | - |
* Rain latest hour (hover to see other rain measurements)
** Current wind speed in m/s (hover to see current wind gust speed)